Time;durP1;ratioP1;P1;durP2;ratioP2;P2;SDS_P1;SDS_P2;PMS_P1;PMS_P2;Temp;Humidity;BMP_temperature;BMP_pressure;BME280_temperature;BME280_humidity;BME280_pressure;Samples;Min_cycle;Max_cycle;Signal;HPM_P1;HPM_P2
2020/12/16 06:00:29;;;;;;;36.23;16.10;;;7.80;97.30;;;;;;6004384;23;20394;31
2020/12/16 06:03:00;;;;;;;37.47;15.90;;;7.80;97.30;;;;;;4876883;29;20457;-75
2020/12/16 06:05:25;;;;;;;30.53;14.20;;;7.80;97.30;;;;;;4899345;29;20405;-74
2020/12/16 06:07:51;;;;;;;30.33;15.33;;;7.80;97.30;;;;;;4898133;29;20931;-75
2020/12/16 06:10:17;;;;;;;30.90;14.73;;;7.80;97.30;;;;;;4897383;29;20655;-74
2020/12/16 06:12:44;;;;;;;32.23;15.10;;;7.80;97.30;;;;;;4880578;29;20178;-74
2020/12/16 06:15:14;;;;;;;29.50;14.40;;;7.80;97.30;;;;;;4894692;29;20433;-74
2020/12/16 06:17:49;;;;;;;31.83;15.43;;;7.70;97.30;;;;;;4894787;29;20482;-73
2020/12/16 06:20:17;;;;;;;33.63;16.07;;;7.70;97.30;;;;;;4894770;29;20425;-74
2020/12/16 06:22:45;;;;;;;30.73;14.70;;;7.70;97.30;;;;;;4894795;29;20450;-73
2020/12/16 06:25:14;;;;;;;32.00;16.47;;;7.70;97.30;;;;;;4894539;29;20423;-74
2020/12/16 06:27:46;;;;;;;34.37;16.10;;;7.70;97.30;;;;;;4894603;29;20426;-74
2020/12/16 06:30:26;;;;;;;34.80;16.50;;;7.70;97.30;;;;;;4880165;29;20494;-71
2020/12/16 06:33:21;;;;;;;31.30;14.90;;;7.70;97.30;;;;;;4894488;29;20970;-73
2020/12/16 06:35:47;;;;;;;31.80;15.30;;;7.70;97.30;;;;;;4880159;29;20423;-74
2020/12/16 06:38:19;;;;;;;30.13;15.37;;;7.70;97.30;;;;;;4880188;29;20462;-74
2020/12/16 06:40:53;;;;;;;36.43;15.83;;;7.70;97.30;;;;;;4894297;29;20482;-74
2020/12/16 06:43:31;;;;;;;36.60;17.10;;;7.70;97.30;;;;;;4894228;29;20441;-73
2020/12/16 06:46:01;;;;;;;33.73;15.50;;;7.70;97.30;;;;;;4894427;29;20476;-74
2020/12/16 06:48:33;;;;;;;33.80;16.37;;;7.70;97.30;;;;;;4894188;29;20482;-74
2020/12/16 06:51:15;;;;;;;36.33;16.17;;;7.70;97.30;;;;;;4894484;29;20879;-74
2020/12/16 06:53:41;;;;;;;41.93;18.00;;;7.70;97.30;;;;;;4894033;29;20434;-73
2020/12/16 06:56:08;;;;;;;32.47;14.70;;;7.70;97.30;;;;;;4894228;29;20505;-74
2020/12/16 06:58:36;;;;;;;34.37;16.43;;;7.70;97.30;;;;;;4894147;29;20422;-74
2020/12/16 07:01:16;;;;;;;35.93;15.50;;;7.70;97.30;;;;;;4893977;29;20494;-74
2020/12/16 07:03:43;;;;;;;34.20;16.87;;;7.70;97.30;;;;;;4893930;29;20456;-74
2020/12/16 07:06:11;;;;;;;36.27;17.13;;;7.70;97.30;;;;;;4894181;29;20422;-75
2020/12/16 07:08:37;;;;;;;30.57;14.27;;;7.70;97.30;;;;;;4893967;29;20438;-74
2020/12/16 07:11:03;;;;;;;34.23;16.50;;;7.70;97.30;;;;;;4893846;29;20470;-74
2020/12/16 07:13:32;;;;;;;33.03;16.27;;;7.70;97.30;;;;;;4893724;29;20422;-74
2020/12/16 07:16:13;;;;;;;39.20;16.47;;;7.70;97.30;;;;;;4879557;29;20418;-74
2020/12/16 07:18:39;;;;;;;35.83;16.60;;;7.80;97.30;;;;;;4893932;29;20414;-74
2020/12/16 07:21:08;;;;;;;41.90;17.67;;;7.80;97.30;;;;;;4893746;29;20453;-74
2020/12/16 07:23:59;;;;;;;38.17;16.80;;;7.80;97.30;;;;;;4893706;29;20182;-74
2020/12/16 07:26:24;;;;;;;35.80;16.53;;;7.80;97.30;;;;;;4893660;29;20437;-74
2020/12/16 07:28:50;;;;;;;34.77;17.30;;;7.80;97.30;;;;;;4893740;29;20418;-74
2020/12/16 07:31:16;;;;;;;35.73;16.63;;;7.80;97.30;;;;;;4893671;29;20304;-74
2020/12/16 07:33:42;;;;;;;39.10;17.37;;;7.80;97.30;;;;;;4893592;29;20501;-74
2020/12/16 07:36:09;;;;;;;35.07;17.60;;;7.80;97.30;;;;;;4893684;29;20186;-74
2020/12/16 07:38:35;;;;;;;37.27;17.37;;;7.70;97.30;;;;;;4893753;29;20474;-74
2020/12/16 07:41:00;;;;;;;35.70;16.10;;;7.70;97.30;;;;;;4893532;29;20991;-74
2020/12/16 07:43:26;;;;;;;32.87;15.40;;;7.70;97.30;;;;;;4894816;29;20799;-74
2020/12/16 07:46:03;;;;;;;36.13;15.93;;;7.70;97.30;;;;;;4897687;29;20261;-74
2020/12/16 07:48:30;;;;;;;35.50;16.47;;;7.60;97.30;;;;;;4897567;29;20181;-74
2020/12/16 07:51:06;;;;;;;37.03;15.60;;;7.60;97.30;;;;;;4882969;29;20490;-74
2020/12/16 07:53:34;;;;;;;33.63;15.53;;;7.50;97.30;;;;;;4897119;29;20479;-72
2020/12/16 07:56:02;;;;;;;36.50;16.20;;;7.50;97.30;;;;;;4897508;29;20418;-73
2020/12/16 07:58:32;;;;;;;29.37;16.07;;;7.50;97.30;;;;;;4897150;29;20513;-73
2020/12/16 08:01:12;;;;;;;34.87;15.63;;;7.50;97.30;;;;;;4897196;29;20473;-74
2020/12/16 08:03:39;;;;;;;36.67;16.37;;;7.60;97.30;;;;;;4897124;29;20454;-74
2020/12/16 08:06:06;;;;;;;33.47;14.57;;;7.60;97.30;;;;;;4897279;29;20833;-74
2020/12/16 08:08:40;;;;;;;40.33;16.70;;;7.70;97.30;;;;;;4897257;29;20437;-73
2020/12/16 08:11:11;;;;;;;41.53;19.37;;;7.70;97.30;;;;;;4897201;29;20609;-74
2020/12/16 08:13:37;;;;;;;43.50;20.43;;;7.70;97.30;;;;;;4896920;29;20561;-74
2020/12/16 08:16:07;;;;;;;39.80;17.77;;;7.80;97.30;;;;;;4897321;29;20418;-73
2020/12/16 08:18:33;;;;;;;36.43;16.47;;;7.80;97.30;;;;;;4896853;29;20221;-73
2020/12/16 08:20:58;;;;;;;35.90;16.33;;;7.90;97.30;;;;;;4896857;29;20470;-74
2020/12/16 08:23:24;;;;;;;42.03;17.17;;;7.90;97.30;;;;;;4896962;29;20181;-74
2020/12/16 08:25:50;;;;;;;40.97;18.87;;;8.00;97.30;;;;;;4896937;29;20241;-74
2020/12/16 08:28:25;;;;;;;42.50;18.80;;;8.00;97.30;;;;;;4896709;29;20186;-74
2020/12/16 08:30:53;;;;;;;38.47;17.90;;;8.10;97.30;;;;;;4896676;29;20213;-73
2020/12/16 08:33:19;;;;;;;42.57;17.77;;;8.10;97.30;;;;;;4896604;29;20426;-74
2020/12/16 08:35:51;;;;;;;42.40;18.50;;;8.10;97.30;;;;;;4896641;29;20426;-74
2020/12/16 08:38:27;;;;;;;38.33;17.83;;;8.10;97.30;;;;;;4896597;29;20419;-74
2020/12/16 08:40:55;;;;;;;39.90;17.40;;;8.20;97.30;;;;;;4896702;29;20438;-74
2020/12/16 08:43:32;;;;;;;41.63;16.90;;;8.20;97.30;;;;;;4896241;29;20427;-74
2020/12/16 08:46:14;;;;;;;43.83;17.70;;;8.20;97.30;;;;;;4896614;29;20430;-74
2020/12/16 08:48:48;;;;;;;38.57;17.10;;;8.20;97.30;;;;;;4896577;29;20833;-74
2020/12/16 08:51:17;;;;;;;41.97;19.30;;;8.20;97.30;;;;;;4896313;29;20473;-74
2020/12/16 08:53:57;;;;;;;44.83;19.60;;;8.30;97.30;;;;;;4895891;29;20471;-74
2020/12/16 08:56:31;;;;;;;40.80;17.50;;;8.30;97.30;;;;;;4896403;29;20414;-74
2020/12/16 08:59:21;;;;;;;46.00;19.00;;;8.40;97.30;;;;;;4896133;29;20497;-74
2020/12/16 09:01:52;;;;;;;46.83;19.17;;;8.40;97.30;;;;;;4896221;29;21043;-74
2020/12/16 09:04:29;;;;;;;43.57;18.37;;;8.40;97.30;;;;;;4895850;29;20431;-74
2020/12/16 09:07:09;;;;;;;47.80;18.67;;;8.40;97.30;;;;;;4896258;29;20508;-74
2020/12/16 09:09:37;;;;;;;42.83;19.10;;;8.50;97.30;;;;;;4896255;29;20421;-74
2020/12/16 09:12:09;;;;;;;38.93;18.63;;;8.50;97.30;;;;;;4895953;29;20474;-74
2020/12/16 09:14:35;;;;;;;39.97;18.20;;;8.50;97.30;;;;;;4895785;29;20414;-73
2020/12/16 09:17:06;;;;;;;42.53;18.33;;;8.60;97.30;;;;;;4895939;29;20831;-74
2020/12/16 09:19:34;;;;;;;36.83;17.03;;;8.60;97.30;;;;;;4881494;29;20205;-74
2020/12/16 09:22:01;;;;;;;42.23;17.40;;;8.60;97.30;;;;;;4895754;29;20497;-73
2020/12/16 09:24:27;;;;;;;43.00;17.10;;;8.60;97.30;;;;;;4895516;29;20518;-74
2020/12/16 09:26:56;;;;;;;34.23;16.63;;;8.70;97.30;;;;;;4895697;29;20415;-74
2020/12/16 09:29:29;;;;;;;41.77;17.53;;;8.80;97.30;;;;;;4895594;29;20423;-74
2020/12/16 09:32:18;;;;;;;36.10;17.20;;;8.80;97.30;;;;;;4895777;29;20462;-74
2020/12/16 09:34:52;;;;;;;34.03;17.47;;;8.90;97.30;;;;;;4895456;29;20556;-74
2020/12/16 09:37:30;;;;;;;40.07;18.27;;;8.90;97.30;;;;;;4895560;29;20433;-74
2020/12/16 09:40:26;;;;;;;37.17;18.03;;;9.00;97.30;;;;;;4895585;29;20798;-74
2020/12/16 09:42:57;;;;;;;40.30;16.67;;;9.00;97.30;;;;;;4880211;29;20430;-74
2020/12/16 09:45:23;;;;;;;44.37;18.20;;;9.10;97.30;;;;;;4895442;29;20988;-73
2020/12/16 09:47:51;;;;;;;32.07;16.97;;;9.10;97.30;;;;;;4881029;29;20505;-72
2020/12/16 09:50:26;;;;;;;35.40;16.77;;;9.20;97.30;;;;;;4895071;29;20208;-73
2020/12/16 09:53:05;;;;;;;38.70;17.00;;;9.30;97.30;;;;;;4895400;29;20439;-73
2020/12/16 09:55:37;;;;;;;34.33;16.43;;;9.40;97.30;;;;;;4895434;29;20414;-73
2020/12/16 09:58:07;;;;;;;38.17;18.30;;;9.50;97.30;;;;;;4895277;29;20479;-74
2020/12/16 10:00:34;;;;;;;34.33;16.13;;;9.60;97.30;;;;;;4894772;29;20461;-74
2020/12/16 10:03:11;;;;;;;37.07;17.77;;;9.60;97.30;;;;;;4895037;29;20450;-74
2020/12/16 10:05:39;;;;;;;37.47;17.97;;;9.80;97.30;;;;;;4880114;29;20506;-73
2020/12/16 10:08:11;;;;;;;35.70;16.80;;;9.90;97.30;;;;;;4895019;29;20423;-73
2020/12/16 10:10:38;;;;;;;37.00;17.10;;;9.90;97.30;;;;;;4894901;29;20462;-74
2020/12/16 10:13:03;;;;;;;37.07;17.30;;;9.90;97.30;;;;;;4894659;29;20416;-73
2020/12/16 10:15:29;;;;;;;37.47;16.90;;;10.00;97.30;;;;;;4895033;29;20498;-73
2020/12/16 10:17:55;;;;;;;32.20;16.50;;;10.10;97.30;;;;;;4895089;29;20632;-73
2020/12/16 10:20:21;;;;;;;35.97;17.20;;;10.20;97.30;;;;;;4894628;29;20174;-73
2020/12/16 10:22:47;;;;;;;34.93;16.43;;;10.30;97.30;;;;;;4880439;29;20777;-73
2020/12/16 10:25:13;;;;;;;37.73;15.53;;;10.40;97.30;;;;;;4880127;29;20924;-73
2020/12/16 10:27:39;;;;;;;36.33;17.43;;;10.50;97.30;;;;;;4894786;29;20265;-73
2020/12/16 10:30:06;;;;;;;30.93;16.30;;;10.60;97.30;;;;;;4894703;29;20422;-73
2020/12/16 10:32:34;;;;;;;31.27;15.17;;;10.60;97.30;;;;;;4894630;29;20586;-73
2020/12/16 10:35:00;;;;;;;32.20;15.77;;;10.80;97.30;;;;;;4894250;29;20426;-73
2020/12/16 10:37:27;;;;;;;33.27;17.20;;;10.90;97.30;;;;;;4894604;29;20415;-73
2020/12/16 10:39:52;;;;;;;36.40;16.90;;;11.10;97.30;;;;;;4894607;29;20505;-73
2020/12/16 10:42:21;;;;;;;29.47;15.33;;;11.20;97.30;;;;;;4894258;29;20937;-73
2020/12/16 10:44:46;;;;;;;30.30;15.60;;;11.40;97.30;;;;;;4894233;29;20182;-73
2020/12/16 10:47:12;;;;;;;36.90;16.20;;;11.50;97.30;;;;;;4894438;29;20429;-73
2020/12/16 10:49:39;;;;;;;34.00;16.47;;;11.50;97.30;;;;;;4894189;29;20197;-73
2020/12/16 10:52:07;;;;;;;39.57;17.67;;;11.60;97.30;;;;;;4894120;29;20218;-73
2020/12/16 10:54:33;;;;;;;37.33;16.87;;;11.50;97.30;;;;;;4893820;29;20430;-73
2020/12/16 10:56:59;;;;;;;33.87;16.90;;;11.60;97.30;;;;;;4879760;29;20471;-73
2020/12/16 10:59:26;;;;;;;32.90;16.43;;;11.80;97.30;;;;;;4894042;29;20202;-73
2020/12/16 11:01:52;;;;;;;33.63;15.63;;;11.90;97.30;;;;;;4879556;29;20461;-73
2020/12/16 11:04:18;;;;;;;32.80;17.00;;;12.00;97.30;;;;;;4893827;29;20479;-72
2020/12/16 11:06:48;;;;;;;37.53;17.13;;;12.00;97.30;;;;;;4894025;29;20671;-73
2020/12/16 11:09:15;;;;;;;35.77;16.40;;;12.00;97.30;;;;;;4893829;29;20186;-73
2020/12/16 11:11:42;;;;;;;32.73;17.40;;;12.10;97.30;;;;;;4893862;29;20470;-73
2020/12/16 11:14:08;;;;;;;35.60;16.80;;;12.20;97.30;;;;;;4893664;29;20442;-73
2020/12/16 11:16:34;;;;;;;38.07;17.73;;;12.20;97.30;;;;;;4893800;29;20506;-72
2020/12/16 11:19:00;;;;;;;33.63;16.90;;;12.30;97.30;;;;;;4878768;29;20178;-72
2020/12/16 11:21:27;;;;;;;34.83;16.93;;;12.40;97.30;;;;;;4893715;29;20284;-73
2020/12/16 11:23:54;;;;;;;39.07;17.40;;;12.30;97.30;;;;;;4879132;29;20177;-73
2020/12/16 11:26:20;;;;;;;31.77;15.97;;;12.40;97.30;;;;;;4894010;29;20421;-72
2020/12/16 11:28:46;;;;;;;35.83;17.77;;;12.30;97.30;;;;;;4893880;29;20414;-73
2020/12/16 11:31:12;;;;;;;35.83;15.80;;;12.40;97.30;;;;;;4893405;29;20466;-73
2020/12/16 11:33:37;;;;;;;36.07;17.47;;;12.50;97.30;;;;;;4893592;29;20182;-73
2020/12/16 11:36:08;;;;;;;39.23;18.43;;;12.70;97.30;;;;;;4893644;29;20184;-73
2020/12/16 11:38:34;;;;;;;34.30;16.70;;;12.70;97.30;;;;;;4879250;29;20600;-73
2020/12/16 11:41:00;;;;;;;37.33;17.50;;;12.80;97.30;;;;;;4893570;29;20537;-74
2020/12/16 11:43:25;;;;;;;35.80;17.37;;;12.90;97.30;;;;;;4879234;29;20182;-74
2020/12/16 11:45:55;;;;;;;35.57;17.70;;;13.10;97.30;;;;;;4893589;29;20226;-74
2020/12/16 11:48:20;;;;;;;35.80;18.20;;;13.20;97.30;;;;;;4879212;29;20190;-74
2020/12/16 11:50:47;;;;;;;35.47;18.23;;;13.10;97.30;;;;;;4893197;29;20477;-74
2020/12/16 11:53:13;;;;;;;33.90;16.83;;;13.20;97.30;;;;;;4893140;29;20633;-74
2020/12/16 11:55:39;;;;;;;29.77;16.17;;;13.30;97.30;;;;;;4879133;29;20419;-73
2020/12/16 11:58:06;;;;;;;34.33;16.90;;;13.50;97.30;;;;;;4877818;29;20904;-74
2020/12/16 12:00:32;;;;;;;36.20;18.13;;;13.60;97.30;;;;;;4893191;29;20414;-74
2020/12/16 12:02:58;;;;;;;30.87;17.30;;;13.70;97.30;;;;;;4892556;29;20450;-73
2020/12/16 12:05:23;;;;;;;36.90;17.80;;;13.80;97.30;;;;;;4893556;29;20430;-73
2020/12/16 12:07:49;;;;;;;38.53;16.90;;;13.90;97.10;;;;;;4879552;29;20206;-73
2020/12/16 12:10:15;;;;;;;34.57;17.10;;;14.00;97.00;;;;;;4877439;29;20291;-72
2020/12/16 12:12:40;;;;;;;35.23;17.97;;;14.10;96.60;;;;;;4906266;29;20205;-72
2020/12/16 12:15:07;;;;;;;34.83;17.00;;;14.10;96.10;;;;;;4878847;29;20214;-72
2020/12/16 12:17:34;;;;;;;32.87;17.20;;;14.20;95.90;;;;;;4893431;29;20182;-72
2020/12/16 12:20:01;;;;;;;31.70;16.83;;;14.30;96.20;;;;;;4878113;29;20461;-72
2020/12/16 12:22:27;;;;;;;27.43;14.70;;;14.50;95.70;;;;;;4879054;29;20443;-73
2020/12/16 12:24:52;;;;;;;27.43;13.90;;;14.70;95.60;;;;;;4877040;29;20217;-72
2020/12/16 12:27:19;;;;;;;29.37;14.50;;;14.80;95.00;;;;;;4879109;29;20601;-72
2020/12/16 12:29:45;;;;;;;33.40;16.77;;;14.90;94.80;;;;;;4879393;29;20197;-72
2020/12/16 12:32:11;;;;;;;31.13;16.77;;;15.00;94.50;;;;;;4881921;29;20955;-73
2020/12/16 12:34:36;;;;;;;31.03;16.90;;;15.10;94.40;;;;;;4881049;29;20654;-73
2020/12/16 12:37:03;;;;;;;30.90;16.53;;;15.30;94.10;;;;;;4881129;29;20189;-72
2020/12/16 12:39:28;;;;;;;32.00;16.80;;;15.30;93.60;;;;;;4882076;29;20178;-72
2020/12/16 12:41:54;;;;;;;33.20;16.30;;;15.10;93.40;;;;;;4880901;29;20454;-72
2020/12/16 12:44:20;;;;;;;30.83;17.10;;;15.00;93.80;;;;;;4880785;29;20193;-74
2020/12/16 12:46:48;;;;;;;31.67;17.27;;;14.90;94.20;;;;;;4879759;29;20178;-71
2020/12/16 12:49:15;;;;;;;32.83;17.00;;;14.80;94.30;;;;;;4881836;29;20426;-71
2020/12/16 12:51:42;;;;;;;33.07;16.63;;;15.10;94.20;;;;;;4881863;29;20473;-72
2020/12/16 12:54:07;;;;;;;36.00;18.93;;;15.30;93.90;;;;;;4880616;29;20816;-73
2020/12/16 12:56:33;;;;;;;37.30;18.83;;;15.30;93.30;;;;;;4880833;29;20422;-72
2020/12/16 12:58:59;;;;;;;35.23;17.30;;;15.20;93.80;;;;;;4880788;29;20186;-72
2020/12/16 13:01:24;;;;;;;41.17;18.80;;;15.00;94.10;;;;;;4880447;29;20225;-72
2020/12/16 13:03:50;;;;;;;39.30;19.67;;;14.90;94.40;;;;;;4885255;29;20186;-72
2020/12/16 13:06:16;;;;;;;38.33;19.13;;;14.80;94.90;;;;;;4881920;29;20260;-71
2020/12/16 13:08:42;;;;;;;36.33;18.20;;;14.80;95.10;;;;;;4880491;29;20226;-71
2020/12/16 13:11:09;;;;;;;33.50;17.63;;;14.80;95.10;;;;;;4881749;29;20210;-71
2020/12/16 13:13:34;;;;;;;40.27;18.90;;;15.00;94.70;;;;;;4896055;29;20182;-72
2020/12/16 13:16:01;;;;;;;39.63;19.13;;;15.00;94.50;;;;;;4881295;29;20429;-72
2020/12/16 13:18:27;;;;;;;42.23;19.03;;;14.80;94.50;;;;;;4881292;29;20185;-71
2020/12/16 13:20:56;;;;;;;39.60;19.13;;;14.70;94.90;;;;;;4880172;29;20450;-72
2020/12/16 13:23:23;;;;;;;35.10;17.40;;;14.60;95.20;;;;;;4879801;29;20245;-72
2020/12/16 13:25:49;;;;;;;41.80;19.23;;;14.40;95.40;;;;;;4881540;29;20442;-72
2020/12/16 13:28:15;;;;;;;40.07;19.70;;;14.30;95.80;;;;;;4880358;29;20427;-72
2020/12/16 13:30:40;;;;;;;37.23;18.70;;;14.40;95.80;;;;;;4881306;29;20988;-72
2020/12/16 13:33:06;;;;;;;36.10;17.17;;;14.60;95.70;;;;;;4895655;29;20410;-72
2020/12/16 13:35:32;;;;;;;36.00;17.90;;;14.60;95.30;;;;;;4881542;29;20276;-72
2020/12/16 13:37:57;;;;;;;38.73;19.33;;;14.70;95.20;;;;;;4895571;29;20244;-72
2020/12/16 13:40:23;;;;;;;38.30;18.33;;;14.70;95.30;;;;;;4894657;29;20230;-72
2020/12/16 13:42:51;;;;;;;37.20;18.03;;;14.70;95.20;;;;;;4895467;29;20675;-73
2020/12/16 13:45:17;;;;;;;38.03;18.93;;;14.40;95.30;;;;;;4895386;29;20182;-73
2020/12/16 13:47:44;;;;;;;40.63;20.13;;;13.80;96.60;;;;;;4881139;29;20427;-73
2020/12/16 13:50:10;;;;;;;39.43;20.40;;;13.20;97.30;;;;;;4895335;29;20426;-72
2020/12/16 13:52:40;;;;;;;40.37;18.90;;;12.80;97.30;;;;;;4879234;29;20466;-72
2020/12/16 13:55:06;;;;;;;39.90;19.60;;;12.90;97.30;;;;;;4879788;29;20419;-72
2020/12/16 13:57:36;;;;;;;35.37;18.90;;;13.10;97.30;;;;;;4880253;29;20808;-72
2020/12/16 14:00:05;;;;;;;41.73;20.20;;;13.50;97.30;;;;;;4893469;29;20449;-71
2020/12/16 14:02:31;;;;;;;42.67;20.13;;;13.70;97.30;;;;;;4894323;29;20458;-72
2020/12/16 14:04:57;;;;;;;38.60;18.63;;;13.70;97.30;;;;;;4880060;29;20430;-72
2020/12/16 14:07:22;;;;;;;38.63;19.10;;;13.30;97.30;;;;;;4894292;29;20514;-72
2020/12/16 14:09:48;;;;;;;39.33;18.67;;;12.90;97.30;;;;;;4893896;29;20193;-72
2020/12/16 14:12:17;;;;;;;39.57;19.23;;;12.30;97.30;;;;;;4894110;29;20316;-73
2020/12/16 14:14:46;;;;;;;37.77;18.37;;;11.90;97.30;;;;;;4885328;29;20591;-73
2020/12/16 14:17:14;;;;;;;42.77;19.87;;;11.60;97.30;;;;;;4879657;29;20426;-72
2020/12/16 14:19:39;;;;;;;46.43;20.70;;;11.30;97.30;;;;;;4879951;29;20414;-73
2020/12/16 14:22:06;;;;;;;43.20;19.70;;;11.10;97.30;;;;;;4880059;29;20433;-72
2020/12/16 14:24:34;;;;;;;42.37;18.70;;;11.00;97.30;;;;;;4894079;29;20182;-72
2020/12/16 14:27:02;;;;;;;40.83;18.57;;;10.80;97.30;;;;;;4894056;29;20442;-72
2020/12/16 14:29:27;;;;;;;42.00;20.30;;;10.70;97.30;;;;;;4893831;29;20426;-72
2020/12/16 14:31:53;;;;;;;40.10;18.70;;;10.60;97.30;;;;;;4879762;29;20466;-72
2020/12/16 14:34:19;;;;;;;41.97;20.90;;;10.50;97.30;;;;;;4879823;29;20174;-72
2020/12/16 14:36:51;;;;;;;40.60;17.90;;;10.50;97.30;;;;;;4878587;29;20461;-72
2020/12/16 14:39:21;;;;;;;41.57;17.40;;;10.40;97.30;;;;;;4879798;29;20178;-72
2020/12/16 14:41:58;;;;;;;36.97;18.13;;;10.30;97.30;;;;;;4878617;29;20446;-72
2020/12/16 14:44:29;;;;;;;43.37;18.77;;;10.10;97.30;;;;;;4878243;29;20440;-72
2020/12/16 14:46:57;;;;;;;41.53;18.90;;;10.00;97.30;;;;;;4878813;29;20505;-72
2020/12/16 14:49:23;;;;;;;36.50;17.67;;;10.00;97.30;;;;;;4879710;29;20477;-72
2020/12/16 14:51:49;;;;;;;44.90;19.93;;;9.90;97.30;;;;;;4893689;29;20471;-72
2020/12/16 14:54:14;;;;;;;39.63;18.47;;;9.80;97.30;;;;;;4893803;29;20552;-72
2020/12/16 14:56:40;;;;;;;42.47;19.87;;;9.70;97.30;;;;;;4879727;29;20509;-72
2020/12/16 14:59:07;;;;;;;43.73;18.90;;;9.60;97.30;;;;;;4893541;29;20189;-72
2020/12/16 15:01:33;;;;;;;44.80;20.63;;;9.60;97.30;;;;;;4878375;29;20466;-72
2020/12/16 15:04:00;;;;;;;42.17;20.67;;;9.50;97.30;;;;;;4883878;29;20436;-71
2020/12/16 15:06:25;;;;;;;45.13;20.20;;;9.40;97.30;;;;;;4893646;29;20435;-72
2020/12/16 15:08:52;;;;;;;45.30;20.80;;;9.30;97.30;;;;;;4893735;29;20838;-71
2020/12/16 15:11:18;;;;;;;43.30;21.40;;;9.20;97.30;;;;;;4894098;29;20466;-73
2020/12/16 15:13:44;;;;;;;58.20;22.70;;;9.10;97.30;;;;;;4879122;29;20417;-72
2020/12/16 15:16:11;;;;;;;43.00;21.40;;;9.00;97.30;;;;;;4893892;29;20189;-73
2020/12/16 15:18:37;;;;;;;41.30;21.20;;;8.90;97.30;;;;;;4893822;29;20525;-72
2020/12/16 15:21:03;;;;;;;46.47;21.97;;;8.90;97.30;;;;;;4893271;29;20612;-73
2020/12/16 15:23:29;;;;;;;50.00;22.43;;;8.90;97.30;;;;;;4877687;29;20196;-73
2020/12/16 15:25:55;;;;;;;47.20;20.13;;;8.80;97.30;;;;;;4878140;29;20509;-73
2020/12/16 15:28:20;;;;;;;57.30;23.37;;;8.70;97.30;;;;;;4879191;29;20205;-73
2020/12/16 15:30:46;;;;;;;51.27;21.00;;;8.60;97.30;;;;;;4877847;29;20237;-73
2020/12/16 15:33:12;;;;;;;56.53;21.87;;;8.60;97.30;;;;;;4893477;29;20192;-72
2020/12/16 15:35:37;;;;;;;46.73;22.60;;;8.50;97.30;;;;;;4893347;29;20200;-73
2020/12/16 15:38:04;;;;;;;49.27;22.00;;;8.40;97.30;;;;;;4879010;29;20544;-73
2020/12/16 15:40:29;;;;;;;47.97;23.47;;;8.30;97.30;;;;;;4893650;29;20644;-72
2020/12/16 15:42:55;;;;;;;53.23;22.53;;;8.30;97.30;;;;;;4893686;29;20437;-73
2020/12/16 15:45:21;;;;;;;51.80;23.10;;;8.20;97.30;;;;;;4878774;29;20687;-72
2020/12/16 15:47:47;;;;;;;51.77;22.00;;;8.20;97.30;;;;;;4893639;29;20426;-73
2020/12/16 15:50:13;;;;;;;51.77;23.03;;;8.10;97.30;;;;;;4892033;29;20209;-72
2020/12/16 15:52:39;;;;;;;54.47;24.93;;;8.10;97.30;;;;;;4893342;29;20210;-73
2020/12/16 15:55:06;;;;;;;58.60;25.10;;;8.10;97.30;;;;;;4877391;29;20186;-73
2020/12/16 15:57:32;;;;;;;51.13;22.87;;;8.10;97.30;;;;;;4892932;29;20433;-73
2020/12/16 15:59:58;;;;;;;53.83;24.57;;;8.10;97.30;;;;;;4889860;29;20522;-73
2020/12/16 16:02:24;;;;;;;59.23;24.80;;;8.00;97.30;;;;;;4891322;29;20972;-73
2020/12/16 16:04:50;;;;;;;57.47;25.93;;;7.90;97.30;;;;;;4880730;29;20193;-72
2020/12/16 16:07:15;;;;;;;64.03;26.97;;;7.90;97.30;;;;;;4881104;29;20198;-73
2020/12/16 16:09:41;;;;;;;54.20;23.33;;;7.90;97.30;;;;;;4881302;29;20212;-72
2020/12/16 16:12:07;;;;;;;56.97;24.50;;;7.80;97.30;;;;;;4881983;29;20228;-72
2020/12/16 16:14:34;;;;;;;64.03;25.70;;;7.80;97.30;;;;;;4882933;29;20197;-73
2020/12/16 16:17:02;;;;;;;60.73;25.90;;;7.80;97.30;;;;;;4895294;29;20206;-73
2020/12/16 16:19:28;;;;;;;56.50;25.20;;;7.70;97.30;;;;;;4896925;29;20446;-73
2020/12/16 16:21:54;;;;;;;55.90;25.07;;;7.70;97.30;;;;;;4896083;29;20968;-72
2020/12/16 16:24:20;;;;;;;61.53;26.30;;;7.60;97.30;;;;;;4881983;29;20905;-72
2020/12/16 16:26:50;;;;;;;58.27;23.77;;;7.60;97.30;;;;;;4880786;29;20499;-72
2020/12/16 16:29:15;;;;;;;57.77;24.70;;;7.60;97.30;;;;;;4895982;29;20924;-72
2020/12/16 16:31:41;;;;;;;57.17;24.03;;;7.60;97.30;;;;;;4896048;29;20472;-73
2020/12/16 16:34:07;;;;;;;56.60;24.00;;;7.50;97.30;;;;;;4879796;29;20645;-72
2020/12/16 16:36:34;;;;;;;56.73;26.10;;;7.50;97.30;;;;;;4880324;29;20182;-72
2020/12/16 16:39:01;;;;;;;53.27;23.87;;;7.50;97.30;;;;;;4891987;29;20456;-72
2020/12/16 16:41:27;;;;;;;64.53;24.73;;;7.40;97.30;;;;;;4895739;29;20450;-73
2020/12/16 16:43:56;;;;;;;51.90;22.53;;;7.50;97.30;;;;;;4892394;29;20533;-73
2020/12/16 16:46:22;;;;;;;65.93;27.63;;;7.80;97.30;;;;;;4895820;29;20470;-73
2020/12/16 16:48:49;;;;;;;57.00;24.37;;;8.20;97.30;;;;;;4890013;29;20427;-73
2020/12/16 16:51:16;;;;;;;49.40;22.77;;;8.40;97.30;;;;;;4894263;29;20480;-73
2020/12/16 16:53:42;;;;;;;50.27;22.57;;;8.60;97.30;;;;;;4894769;29;20429;-72
2020/12/16 16:56:07;;;;;;;58.40;23.50;;;8.70;97.30;;;;;;4895844;29;20426;-72
2020/12/16 16:58:33;;;;;;;54.97;23.53;;;8.90;97.30;;;;;;4876485;29;20434;-73
2020/12/16 17:00:59;;;;;;;50.13;21.73;;;8.90;97.30;;;;;;4892760;29;20225;-72
2020/12/16 17:03:24;;;;;;;52.60;22.97;;;8.90;97.30;;;;;;4894197;29;20182;-72
2020/12/16 17:05:50;;;;;;;55.03;23.77;;;9.00;97.30;;;;;;4892045;29;20206;-72
2020/12/16 17:08:16;;;;;;;50.00;22.20;;;9.10;97.30;;;;;;4880230;29;20174;-72
2020/12/16 17:10:42;;;;;;;56.03;22.90;;;9.00;97.30;;;;;;4892503;29;20968;-72
2020/12/16 17:13:08;;;;;;;49.97;23.27;;;8.80;97.30;;;;;;4889961;29;20201;-73
2020/12/16 17:15:34;;;;;;;52.00;25.10;;;8.50;97.30;;;;;;4890401;29;20210;-72
2020/12/16 17:18:02;;;;;;;50.83;20.80;;;8.30;97.30;;;;;;4894644;29;20479;-72
2020/12/16 17:20:28;;;;;;;61.63;24.60;;;8.10;97.30;;;;;;4901149;29;20194;-72
2020/12/16 17:22:54;;;;;;;55.20;23.67;;;8.00;97.30;;;;;;4903911;29;20427;-72
2020/12/16 17:25:21;;;;;;;56.80;24.43;;;7.90;97.30;;;;;;4898694;29;20190;-73
2020/12/16 17:27:47;;;;;;;51.33;23.13;;;7.80;97.30;;;;;;4893369;29;20438;-72
2020/12/16 17:30:15;;;;;;;61.97;24.33;;;7.70;97.30;;;;;;4894359;29;20426;-72
2020/12/16 17:32:45;;;;;;;51.33;22.70;;;7.70;97.30;;;;;;4879482;29;20568;-72
2020/12/16 17:35:11;;;;;;;50.83;22.30;;;7.60;97.30;;;;;;4894070;29;20426;-72
2020/12/16 17:37:37;;;;;;;61.80;23.63;;;7.50;97.30;;;;;;4894724;29;20421;-72
2020/12/16 17:40:04;;;;;;;60.40;25.83;;;7.40;97.30;;;;;;4893730;29;20446;-73
2020/12/16 17:42:31;;;;;;;54.60;22.37;;;7.30;97.30;;;;;;4894079;29;20620;-72
2020/12/16 17:44:57;;;;;;;53.43;22.73;;;7.30;97.30;;;;;;4894201;29;20430;-72
2020/12/16 17:47:22;;;;;;;57.43;25.10;;;7.30;97.30;;;;;;4879283;29;20902;-72
2020/12/16 17:49:48;;;;;;;59.40;25.50;;;7.30;97.30;;;;;;4878235;29;20434;-72
2020/12/16 17:52:14;;;;;;;62.67;24.23;;;7.20;97.30;;;;;;4879057;29;20217;-72
2020/12/16 17:54:40;;;;;;;57.50;23.90;;;7.20;97.30;;;;;;4889729;29;20194;-72
2020/12/16 17:57:06;;;;;;;63.73;25.90;;;7.20;97.30;;;;;;4878944;29;20438;-72
2020/12/16 17:59:32;;;;;;;54.83;23.90;;;7.20;97.30;;;;;;4878186;29;20194;-71
2020/12/16 18:01:57;;;;;;;57.07;24.33;;;7.20;97.30;;;;;;4857387;29;632936;-72
2020/12/16 18:04:25;;;;;;;64.97;26.27;;;7.10;97.30;;;;;;4887991;29;20223;-72
2020/12/16 18:06:51;;;;;;;60.63;26.20;;;7.10;97.30;;;;;;4894652;29;20260;-72
2020/12/16 18:09:17;;;;;;;56.07;24.93;;;7.00;97.30;;;;;;4894418;29;20569;-72
2020/12/16 18:11:42;;;;;;;65.37;27.83;;;7.00;97.30;;;;;;4878758;29;20217;-72
2020/12/16 18:14:08;;;;;;;70.93;27.63;;;7.00;97.30;;;;;;4878531;29;20182;-72
2020/12/16 18:16:36;;;;;;;55.67;25.07;;;7.00;97.30;;;;;;4878899;29;20612;-71
2020/12/16 18:19:01;;;;;;;56.30;23.97;;;7.00;97.30;;;;;;4880421;29;20197;-72
2020/12/16 18:21:27;;;;;;;60.90;24.70;;;7.00;97.30;;;;;;4877702;29;20465;-72
2020/12/16 18:23:53;;;;;;;66.20;24.27;;;7.00;97.30;;;;;;4888107;29;20190;-72
2020/12/16 18:26:21;;;;;;;49.93;22.23;;;7.10;97.30;;;;;;4890062;29;20197;-72
2020/12/16 18:28:47;;;;;;;57.87;24.03;;;7.10;97.30;;;;;;4883390;29;20194;-72
2020/12/16 18:31:14;;;;;;;58.47;24.37;;;7.10;97.30;;;;;;4879483;29;20488;-72
2020/12/16 18:33:39;;;;;;;54.73;24.77;;;7.10;97.30;;;;;;4892718;29;20636;-72
2020/12/16 18:36:06;;;;;;;56.63;24.47;;;7.10;97.30;;;;;;4874984;29;20455;-72